createdAt,value
2018-11-22T12:16:25.715Z,10.10
2018-11-22T12:18:54.502Z,10.53
2018-11-22T12:21:23.955Z,10.53
2018-11-22T12:23:58.633Z,10.50
2018-11-22T12:26:33.129Z,10.47
2018-11-22T12:29:05.862Z,11.33
2018-11-22T12:31:37.283Z,11.33
2018-11-22T12:34:18.644Z,11.67
2018-11-22T12:37:01.274Z,19.37
2018-11-22T12:39:30.726Z,12.57
2018-11-22T12:42:09.286Z,18.83
2018-11-22T12:44:45.451Z,16.03
2018-11-22T12:47:21.317Z,13.13
2018-11-22T12:49:59.846Z,13.20
2018-11-22T12:52:35.906Z,12.00
2018-11-22T12:55:10.857Z,12.10
2018-11-22T12:57:50.120Z,12.13
2018-11-22T13:00:20.795Z,12.13
2018-11-22T13:02:59.758Z,12.37
2018-11-22T13:05:33.889Z,12.17
2018-11-22T13:08:06.716Z,12.60
2018-11-22T13:10:39.859Z,13.57
2018-11-22T13:13:08.648Z,12.90
2018-11-22T13:15:38.370Z,12.13
2018-11-22T13:18:16.043Z,13.43
2018-11-22T13:20:46.033Z,13.47
2018-11-22T13:23:26.825Z,13.57
2018-11-22T13:28:49.218Z,13.87
2018-11-22T13:31:21.130Z,13.37
2018-11-22T13:33:57.801Z,14.23
2018-11-22T13:36:29.551Z,15.07
2018-11-22T13:39:00.686Z,13.70
2018-11-22T13:41:35.568Z,14.17
2018-11-22T13:44:07.404Z,13.77
2018-11-22T13:46:36.910Z,14.07
2018-11-22T13:49:12.460Z,15.03
2018-11-22T13:51:43.051Z,14.60
2018-11-22T13:54:18.501Z,15.00
2018-11-22T13:56:53.180Z,14.03
2018-11-22T13:59:30.608Z,14.00
2018-11-22T14:02:03.007Z,14.03
2018-11-22T14:04:34.061Z,14.37
2018-11-22T14:07:07.542Z,14.83
2018-11-22T14:09:47.258Z,14.63
2018-11-22T14:12:18.422Z,14.30
2018-11-22T14:14:59.151Z,15.17
2018-11-22T14:17:34.073Z,14.70
2018-11-22T14:20:09.363Z,15.77
2018-11-22T14:22:39.076Z,14.57
2018-11-22T14:25:08.751Z,14.27
2018-11-22T14:27:43.743Z,15.00
2018-11-22T14:30:15.840Z,15.53
2018-11-22T14:32:48.932Z,15.13
2018-11-22T14:35:19.782Z,15.07
2018-11-22T14:37:49.827Z,13.17
2018-11-22T14:40:25.353Z,14.67
2018-11-22T14:43:01.653Z,14.83
2018-11-22T14:45:36.173Z,13.13
2018-11-22T14:48:06.565Z,13.97
2018-11-22T14:50:43.353Z,14.80
2018-11-22T14:53:16.930Z,14.37
2018-11-22T14:55:56.100Z,14.83
2018-11-22T14:58:27.328Z,14.00
2018-11-22T15:00:57.489Z,14.73
2018-11-22T15:03:32.844Z,14.50
2018-11-22T15:06:02.667Z,14.93
2018-11-22T15:08:45.944Z,15.20
2018-11-22T15:11:19.443Z,16.63
2018-11-22T15:13:51.371Z,17.70
2018-11-22T15:16:22.213Z,18.23
2018-11-22T15:18:51.790Z,16.67
2018-11-22T15:21:22.590Z,15.97
2018-11-22T15:23:55.296Z,14.90
2018-11-22T15:26:36.469Z,14.17
2018-11-22T15:29:06.726Z,14.67
2018-11-22T15:31:39.391Z,15.07
2018-11-22T15:34:14.610Z,15.07
2018-11-22T15:36:43.878Z,14.27
2018-11-22T15:39:16.163Z,15.03
2018-11-22T15:41:46.796Z,15.37
2018-11-22T15:44:21.182Z,15.13
2018-11-22T15:46:52.548Z,15.67
2018-11-22T15:49:24.344Z,14.90
2018-11-22T15:51:53.424Z,14.43
2018-11-22T15:54:22.327Z,16.10
2018-11-22T15:56:51.898Z,16.30
2018-11-22T15:59:20.568Z,16.03
2018-11-22T16:01:49.905Z,16.10
2018-11-22T16:04:18.833Z,16.33
2018-11-22T16:06:47.990Z,14.23
2018-11-22T16:09:17.037Z,13.77
2018-11-22T16:11:47.778Z,14.20
2018-11-22T16:14:16.690Z,15.03
2018-11-22T16:16:45.651Z,14.77
2018-11-22T16:19:16.318Z,15.00
2018-11-22T16:21:45.552Z,15.07
2018-11-22T16:24:14.386Z,15.27
2018-11-22T16:26:43.397Z,16.77
2018-11-22T16:29:12.591Z,15.30
2018-11-22T16:31:45.243Z,15.53
2018-11-22T16:34:14.797Z,15.00
2018-11-22T16:36:44.851Z,15.20
2018-11-22T16:39:15.550Z,15.83
2018-11-22T16:41:48.371Z,14.60
2018-11-22T16:44:24.583Z,15.03
2018-11-22T16:46:53.502Z,16.53
2018-11-22T16:49:23.363Z,16.60
2018-11-22T16:51:52.685Z,16.37
2018-11-22T16:54:22.923Z,17.77
2018-11-22T16:56:52.621Z,16.13
2018-11-22T16:59:28.157Z,16.07
2018-11-22T17:01:56.982Z,16.07
2018-11-22T17:04:28.534Z,16.67
2018-11-22T17:06:57.880Z,16.97
2018-11-22T17:09:28.578Z,35.40
2018-11-22T17:11:57.389Z,23.53
2018-11-22T17:14:26.735Z,19.00
2018-11-22T17:16:55.875Z,17.17
2018-11-22T17:19:24.550Z,16.90
2018-11-22T17:21:53.330Z,16.53
2018-11-22T17:24:22.438Z,17.00
2018-11-22T17:26:52.058Z,16.47
2018-11-22T17:29:20.887Z,15.73
2018-11-22T17:31:49.830Z,15.87
2018-11-22T17:34:19.312Z,16.77
2018-11-22T17:36:53.875Z,16.17
2018-11-22T17:39:23.702Z,16.33
2018-11-22T17:41:53.458Z,17.33
2018-11-22T17:44:23.406Z,16.40
2018-11-22T17:46:53.000Z,16.60
2018-11-22T17:49:23.727Z,17.10
2018-11-22T17:51:53.286Z,16.20
2018-11-22T17:54:24.026Z,17.67
2018-11-22T17:56:53.187Z,15.30
2018-11-22T17:59:28.068Z,17.03
2018-11-22T18:01:58.058Z,15.67
2018-11-22T18:04:26.918Z,16.80
2018-11-22T18:06:59.336Z,16.73
2018-11-22T18:09:28.727Z,17.33
2018-11-22T18:11:58.018Z,16.53
2018-11-22T18:14:27.704Z,23.93
2018-11-22T18:16:57.166Z,20.40
2018-11-22T18:19:26.315Z,20.63
2018-11-22T18:21:55.463Z,19.07
2018-11-22T18:24:24.650Z,16.80
2018-11-22T18:26:53.766Z,17.37
2018-11-22T18:29:25.062Z,18.93
2018-11-22T18:31:54.926Z,18.50
2018-11-22T18:34:26.171Z,20.47
2018-11-22T18:36:55.689Z,20.80
2018-11-22T18:39:24.857Z,18.73
2018-11-22T18:41:53.922Z,16.93
2018-11-22T18:44:23.998Z,18.80
2018-11-22T18:46:53.226Z,16.97
2018-11-22T18:49:23.290Z,18.87
2018-11-22T18:51:52.341Z,18.67
2018-11-22T18:54:22.365Z,19.07
2018-11-22T18:56:51.706Z,22.37
2018-11-22T18:59:20.367Z,21.00
2018-11-22T19:01:49.515Z,21.37
2018-11-22T19:04:18.118Z,19.03
2018-11-22T19:06:47.574Z,19.37
2018-11-22T19:09:17.093Z,18.10
2018-11-22T19:11:47.742Z,19.03
2018-11-22T19:14:19.886Z,17.13
2018-11-22T19:16:49.805Z,16.87
2018-11-22T19:19:19.666Z,17.27
2018-11-22T19:21:49.753Z,17.47
2018-11-22T19:24:20.851Z,18.13
2018-11-22T19:26:50.789Z,17.47
2018-11-22T19:29:21.224Z,17.57
2018-11-22T19:31:52.122Z,18.23
2018-11-22T19:34:22.348Z,23.50
2018-11-22T19:36:51.494Z,19.73
2018-11-22T19:39:21.147Z,20.77
2018-11-22T19:41:50.536Z,20.83
2018-11-22T19:44:22.149Z,19.80
2018-11-22T19:46:51.910Z,19.20
2018-11-22T19:49:21.498Z,18.97
2018-11-22T19:51:52.209Z,16.87
2018-11-22T19:54:21.534Z,18.50
2018-11-22T19:56:50.956Z,19.77
2018-11-22T19:59:21.350Z,20.33
2018-11-22T20:01:50.244Z,20.57
2018-11-22T20:04:23.544Z,18.50
2018-11-22T20:06:52.526Z,17.10
2018-11-22T20:09:24.685Z,16.47
2018-11-22T20:11:54.055Z,17.37
2018-11-22T20:14:29.006Z,18.73
2018-11-22T20:16:58.466Z,17.10
2018-11-22T20:19:27.706Z,18.87
2018-11-22T20:21:57.201Z,29.03
2018-11-22T20:24:26.864Z,19.17
2018-11-22T20:27:00.289Z,24.30
2018-11-22T20:29:28.912Z,19.57
2018-11-22T20:31:58.203Z,20.17
2018-11-22T20:34:27.882Z,30.83
2018-11-22T20:36:56.908Z,18.00
2018-11-22T20:39:26.088Z,16.53
2018-11-22T20:41:54.994Z,18.57
2018-11-22T20:44:24.010Z,18.37
2018-11-22T20:46:53.042Z,20.07
2018-11-22T20:49:23.702Z,17.80
2018-11-22T20:51:52.761Z,17.97
2018-11-22T20:54:21.656Z,17.17
2018-11-22T20:56:50.469Z,18.17
2018-11-22T20:59:19.090Z,18.40
2018-11-22T21:01:51.770Z,17.80
2018-11-22T21:04:18.136Z,17.97
2018-11-22T21:06:47.041Z,17.20
2018-11-22T21:09:16.170Z,17.13
2018-11-22T21:11:46.010Z,17.77
2018-11-22T21:14:15.106Z,17.83
2018-11-22T21:16:44.929Z,17.73
2018-11-22T21:19:13.966Z,18.47
2018-11-22T21:21:43.030Z,18.07
2018-11-22T21:24:12.033Z,17.57
2018-11-22T21:26:41.464Z,16.73
2018-11-22T21:29:11.346Z,17.30
2018-11-22T21:31:41.175Z,17.20
2018-11-22T21:34:11.462Z,18.23
2018-11-22T21:36:40.146Z,17.93
2018-11-22T21:39:10.358Z,18.63
2018-11-22T21:41:39.507Z,18.87
2018-11-22T21:44:09.478Z,18.60
2018-11-22T21:46:39.536Z,16.57
2018-11-22T21:49:08.454Z,17.07
2018-11-22T21:51:39.555Z,17.57
2018-11-22T21:54:08.159Z,18.23
2018-11-22T21:56:37.441Z,17.97
2018-11-22T21:59:06.974Z,17.30
2018-11-22T22:01:36.271Z,18.50
2018-11-22T22:04:06.494Z,18.57
2018-11-22T22:06:36.446Z,18.13
2018-11-22T22:09:07.462Z,18.07
2018-11-22T22:11:37.633Z,19.10
2018-11-22T22:14:06.725Z,17.93
2018-11-22T22:16:36.437Z,17.87
2018-11-22T22:19:05.954Z,17.40
2018-11-22T22:21:35.503Z,19.67
2018-11-22T22:24:04.558Z,17.93
2018-11-22T22:26:34.004Z,18.23
2018-11-22T22:29:04.618Z,18.40
2018-11-22T22:31:33.988Z,18.90
2018-11-22T22:34:02.601Z,20.83
2018-11-22T22:36:31.647Z,26.03
2018-11-22T22:39:01.286Z,25.33
2018-11-22T22:41:31.975Z,24.87
2018-11-22T22:44:01.050Z,23.23
2018-11-22T22:46:30.545Z,21.53
2018-11-22T22:48:59.784Z,19.63
2018-11-22T22:51:29.383Z,21.67
2018-11-22T22:53:59.088Z,18.70
2018-11-22T22:56:28.531Z,18.23
2018-11-22T22:58:58.249Z,19.53
2018-11-22T23:01:27.980Z,20.87
2018-11-22T23:03:57.524Z,20.50
2018-11-22T23:06:27.662Z,20.27
2018-11-22T23:08:56.773Z,20.07
2018-11-22T23:11:29.674Z,22.83
2018-11-22T23:13:59.817Z,20.97
2018-11-22T23:16:28.675Z,20.33
2018-11-22T23:18:58.632Z,18.37
2018-11-22T23:21:28.810Z,20.10
2018-11-22T23:23:58.498Z,20.40
2018-11-22T23:26:27.439Z,19.70
2018-11-22T23:28:58.089Z,18.90
2018-11-22T23:31:27.263Z,19.87
2018-11-22T23:33:56.638Z,20.30
2018-11-22T23:36:25.589Z,17.90
2018-11-22T23:38:55.349Z,18.60
2018-11-22T23:41:25.018Z,18.10
2018-11-22T23:43:53.818Z,18.40
2018-11-22T23:46:26.233Z,19.40
2018-11-22T23:48:55.522Z,19.57
2018-11-22T23:51:24.993Z,20.07
2018-11-22T23:53:53.937Z,19.10
2018-11-22T23:56:22.976Z,19.63
2018-11-22T23:58:51.845Z,19.00
